sensor_id;sensor_type;location;lat;lon;timestamp;P1;durP1;ratioP1;P2;durP2;ratioP2
14778;SDS011;7481;53.750;10.570;2022-11-23T00:00:36;51.03;;;26.63;;
14778;SDS011;7481;53.750;10.570;2022-11-23T00:03:24;52.60;;;25.23;;
14778;SDS011;7481;53.750;10.570;2022-11-23T00:06:11;52.13;;;25.87;;
14778;SDS011;7481;53.750;10.570;2022-11-23T00:08:59;46.50;;;24.00;;
14778;SDS011;7481;53.750;10.570;2022-11-23T00:11:46;55.60;;;25.07;;
14778;SDS011;7481;53.750;10.570;2022-11-23T00:14:33;50.27;;;24.63;;
14778;SDS011;7481;53.750;10.570;2022-11-23T00:17:21;53.13;;;24.70;;
14778;SDS011;7481;53.750;10.570;2022-11-23T00:20:26;53.27;;;25.63;;
14778;SDS011;7481;53.750;10.570;2022-11-23T00:23:14;48.70;;;25.77;;
14778;SDS011;7481;53.750;10.570;2022-11-23T00:26:02;52.33;;;26.37;;
14778;SDS011;7481;53.750;10.570;2022-11-23T00:28:49;55.17;;;26.33;;
14778;SDS011;7481;53.750;10.570;2022-11-23T00:31:37;52.53;;;26.30;;
14778;SDS011;7481;53.750;10.570;2022-11-23T00:34:24;52.30;;;26.17;;
14778;SDS011;7481;53.750;10.570;2022-11-23T00:37:11;53.80;;;26.27;;
14778;SDS011;7481;53.750;10.570;2022-11-23T00:39:59;54.37;;;27.17;;
14778;SDS011;7481;53.750;10.570;2022-11-23T00:42:46;47.77;;;25.23;;
14778;SDS011;7481;53.750;10.570;2022-11-23T00:45:33;58.80;;;26.67;;
14778;SDS011;7481;53.750;10.570;2022-11-23T00:48:21;50.47;;;26.17;;
14778;SDS011;7481;53.750;10.570;2022-11-23T00:51:09;54.00;;;25.97;;
14778;SDS011;7481;53.750;10.570;2022-11-23T00:53:56;51.43;;;25.63;;
14778;SDS011;7481;53.750;10.570;2022-11-23T00:56:44;55.07;;;25.70;;
14778;SDS011;7481;53.750;10.570;2022-11-23T00:59:32;46.43;;;24.83;;
14778;SDS011;7481;53.750;10.570;2022-11-23T01:02:20;51.93;;;26.20;;
14778;SDS011;7481;53.750;10.570;2022-11-23T01:05:07;46.70;;;24.37;;
14778;SDS011;7481;53.750;10.570;2022-11-23T01:07:55;45.13;;;22.40;;
14778;SDS011;7481;53.750;10.570;2022-11-23T01:10:42;47.97;;;25.57;;
14778;SDS011;7481;53.750;10.570;2022-11-23T01:13:29;50.37;;;24.53;;
14778;SDS011;7481;53.750;10.570;2022-11-23T01:16:22;43.23;;;23.40;;
14778;SDS011;7481;53.750;10.570;2022-11-23T01:19:11;46.67;;;24.47;;
14778;SDS011;7481;53.750;10.570;2022-11-23T01:21:58;45.07;;;22.93;;
14778;SDS011;7481;53.750;10.570;2022-11-23T01:24:45;53.47;;;24.37;;
14778;SDS011;7481;53.750;10.570;2022-11-23T01:27:33;41.57;;;20.93;;
14778;SDS011;7481;53.750;10.570;2022-11-23T01:30:20;44.57;;;23.40;;
14778;SDS011;7481;53.750;10.570;2022-11-23T01:33:08;43.20;;;23.13;;
14778;SDS011;7481;53.750;10.570;2022-11-23T01:35:55;43.47;;;22.37;;
14778;SDS011;7481;53.750;10.570;2022-11-23T01:38:43;44.30;;;23.13;;
14778;SDS011;7481;53.750;10.570;2022-11-23T01:41:36;40.20;;;23.00;;
14778;SDS011;7481;53.750;10.570;2022-11-23T01:44:28;45.27;;;23.03;;
14778;SDS011;7481;53.750;10.570;2022-11-23T01:47:16;39.77;;;21.03;;
14778;SDS011;7481;53.750;10.570;2022-11-23T01:50:04;43.87;;;22.63;;
14778;SDS011;7481;53.750;10.570;2022-11-23T01:52:51;40.57;;;21.57;;
14778;SDS011;7481;53.750;10.570;2022-11-23T01:55:39;45.33;;;22.00;;
14778;SDS011;7481;53.750;10.570;2022-11-23T01:58:28;41.03;;;22.00;;
14778;SDS011;7481;53.750;10.570;2022-11-23T02:01:17;40.03;;;20.93;;
14778;SDS011;7481;53.750;10.570;2022-11-23T02:04:05;43.80;;;23.20;;
14778;SDS011;7481;53.750;10.570;2022-11-23T02:06:54;38.80;;;21.63;;
14778;SDS011;7481;53.750;10.570;2022-11-23T02:09:42;39.77;;;21.83;;
14778;SDS011;7481;53.750;10.570;2022-11-23T02:12:29;45.27;;;23.20;;
14778;SDS011;7481;53.750;10.570;2022-11-23T02:15:17;38.37;;;21.00;;
14778;SDS011;7481;53.750;10.570;2022-11-23T02:18:12;41.13;;;22.57;;
14778;SDS011;7481;53.750;10.570;2022-11-23T02:21:01;40.10;;;20.97;;
14778;SDS011;7481;53.750;10.570;2022-11-23T02:23:53;38.87;;;20.27;;
14778;SDS011;7481;53.750;10.570;2022-11-23T02:26:41;38.40;;;21.17;;
14778;SDS011;7481;53.750;10.570;2022-11-23T02:29:30;36.80;;;21.07;;
14778;SDS011;7481;53.750;10.570;2022-11-23T02:32:19;40.97;;;22.37;;
14778;SDS011;7481;53.750;10.570;2022-11-23T02:35:10;36.30;;;20.93;;
14778;SDS011;7481;53.750;10.570;2022-11-23T02:37:58;36.37;;;20.90;;
14778;SDS011;7481;53.750;10.570;2022-11-23T02:40:45;37.50;;;21.73;;
14778;SDS011;7481;53.750;10.570;2022-11-23T02:43:33;40.00;;;20.70;;
14778;SDS011;7481;53.750;10.570;2022-11-23T02:46:26;38.70;;;22.37;;
14778;SDS011;7481;53.750;10.570;2022-11-23T02:49:13;37.67;;;22.23;;
14778;SDS011;7481;53.750;10.570;2022-11-23T02:52:01;37.73;;;21.77;;
14778;SDS011;7481;53.750;10.570;2022-11-23T02:54:49;40.87;;;21.83;;
14778;SDS011;7481;53.750;10.570;2022-11-23T02:57:36;43.90;;;22.80;;
14778;SDS011;7481;53.750;10.570;2022-11-23T03:00:24;43.33;;;21.67;;
14778;SDS011;7481;53.750;10.570;2022-11-23T03:03:11;40.97;;;20.63;;
14778;SDS011;7481;53.750;10.570;2022-11-23T03:06:00;38.13;;;21.30;;
14778;SDS011;7481;53.750;10.570;2022-11-23T03:08:48;41.20;;;22.03;;
14778;SDS011;7481;53.750;10.570;2022-11-23T03:11:35;40.47;;;21.13;;
14778;SDS011;7481;53.750;10.570;2022-11-23T03:14:22;39.57;;;21.47;;
14778;SDS011;7481;53.750;10.570;2022-11-23T03:17:11;41.03;;;21.40;;
14778;SDS011;7481;53.750;10.570;2022-11-23T03:19:58;40.43;;;20.83;;
14778;SDS011;7481;53.750;10.570;2022-11-23T03:22:46;36.23;;;20.63;;
14778;SDS011;7481;53.750;10.570;2022-11-23T03:25:33;37.97;;;21.67;;
14778;SDS011;7481;53.750;10.570;2022-11-23T03:28:20;38.53;;;20.60;;
14778;SDS011;7481;53.750;10.570;2022-11-23T03:31:09;36.27;;;20.63;;
14778;SDS011;7481;53.750;10.570;2022-11-23T03:33:59;36.03;;;19.40;;
14778;SDS011;7481;53.750;10.570;2022-11-23T03:36:47;36.77;;;19.23;;
14778;SDS011;7481;53.750;10.570;2022-11-23T03:39:34;38.33;;;19.60;;
14778;SDS011;7481;53.750;10.570;2022-11-23T03:42:21;37.97;;;21.00;;
14778;SDS011;7481;53.750;10.570;2022-11-23T03:45:09;44.03;;;22.73;;
14778;SDS011;7481;53.750;10.570;2022-11-23T03:47:56;37.83;;;20.37;;
14778;SDS011;7481;53.750;10.570;2022-11-23T03:50:44;38.43;;;20.43;;
14778;SDS011;7481;53.750;10.570;2022-11-23T03:53:33;37.07;;;20.63;;
14778;SDS011;7481;53.750;10.570;2022-11-23T03:56:20;38.93;;;21.37;;
14778;SDS011;7481;53.750;10.570;2022-11-23T03:59:08;40.10;;;19.43;;
14778;SDS011;7481;53.750;10.570;2022-11-23T04:01:55;37.60;;;20.07;;
14778;SDS011;7481;53.750;10.570;2022-11-23T04:04:43;42.40;;;21.43;;
14778;SDS011;7481;53.750;10.570;2022-11-23T04:07:30;36.00;;;19.53;;
14778;SDS011;7481;53.750;10.570;2022-11-23T04:10:18;34.93;;;19.40;;
14778;SDS011;7481;53.750;10.570;2022-11-23T04:13:06;33.27;;;18.47;;
14778;SDS011;7481;53.750;10.570;2022-11-23T04:15:53;35.83;;;20.03;;
14778;SDS011;7481;53.750;10.570;2022-11-23T04:18:40;40.50;;;20.10;;
14778;SDS011;7481;53.750;10.570;2022-11-23T04:21:28;31.90;;;19.20;;
14778;SDS011;7481;53.750;10.570;2022-11-23T04:24:15;36.80;;;19.20;;
14778;SDS011;7481;53.750;10.570;2022-11-23T04:27:03;32.63;;;18.30;;
14778;SDS011;7481;53.750;10.570;2022-11-23T04:29:50;37.30;;;20.63;;
14778;SDS011;7481;53.750;10.570;2022-11-23T04:32:37;31.50;;;18.57;;
14778;SDS011;7481;53.750;10.570;2022-11-23T04:35:26;34.43;;;18.80;;
14778;SDS011;7481;53.750;10.570;2022-11-23T04:38:14;37.63;;;18.83;;
14778;SDS011;7481;53.750;10.570;2022-11-23T04:41:03;34.53;;;19.53;;
14778;SDS011;7481;53.750;10.570;2022-11-23T04:43:52;33.27;;;18.83;;
14778;SDS011;7481;53.750;10.570;2022-11-23T04:46:39;30.47;;;17.23;;
14778;SDS011;7481;53.750;10.570;2022-11-23T04:49:27;36.60;;;22.85;;
14778;SDS011;7481;53.750;10.570;2022-11-23T04:52:14;31.57;;;18.13;;
14778;SDS011;7481;53.750;10.570;2022-11-23T04:55:02;32.63;;;20.48;;
14778;SDS011;7481;53.750;10.570;2022-11-23T04:57:50;31.27;;;18.97;;
14778;SDS011;7481;53.750;10.570;2022-11-23T05:00:37;29.37;;;16.67;;
14778;SDS011;7481;53.750;10.570;2022-11-23T05:03:24;31.77;;;16.63;;
14778;SDS011;7481;53.750;10.570;2022-11-23T05:06:12;28.60;;;16.57;;
14778;SDS011;7481;53.750;10.570;2022-11-23T05:08:59;32.20;;;16.53;;
14778;SDS011;7481;53.750;10.570;2022-11-23T05:11:47;27.10;;;16.47;;
14778;SDS011;7481;53.750;10.570;2022-11-23T05:14:34;31.40;;;16.10;;
14778;SDS011;7481;53.750;10.570;2022-11-23T05:17:22;29.37;;;16.17;;
14778;SDS011;7481;53.750;10.570;2022-11-23T05:20:09;29.27;;;16.60;;
14778;SDS011;7481;53.750;10.570;2022-11-23T05:22:57;27.60;;;15.83;;
14778;SDS011;7481;53.750;10.570;2022-11-23T05:25:44;29.47;;;16.37;;
14778;SDS011;7481;53.750;10.570;2022-11-23T05:28:32;28.10;;;16.03;;
14778;SDS011;7481;53.750;10.570;2022-11-23T05:31:27;27.80;;;16.17;;
14778;SDS011;7481;53.750;10.570;2022-11-23T05:34:14;25.57;;;15.70;;
14778;SDS011;7481;53.750;10.570;2022-11-23T05:37:02;31.23;;;16.17;;
14778;SDS011;7481;53.750;10.570;2022-11-23T05:39:50;28.77;;;15.07;;
14778;SDS011;7481;53.750;10.570;2022-11-23T05:42:39;24.87;;;14.43;;
14778;SDS011;7481;53.750;10.570;2022-11-23T05:45:27;25.00;;;14.53;;
14778;SDS011;7481;53.750;10.570;2022-11-23T05:48:16;27.23;;;15.23;;
14778;SDS011;7481;53.750;10.570;2022-11-23T05:51:04;26.23;;;15.20;;
14778;SDS011;7481;53.750;10.570;2022-11-23T05:53:52;24.20;;;15.50;;
14778;SDS011;7481;53.750;10.570;2022-11-23T05:56:42;24.20;;;14.17;;
14778;SDS011;7481;53.750;10.570;2022-11-23T05:59:31;23.73;;;13.80;;
14778;SDS011;7481;53.750;10.570;2022-11-23T06:02:21;23.53;;;14.30;;
14778;SDS011;7481;53.750;10.570;2022-11-23T06:05:09;27.00;;;14.93;;
14778;SDS011;7481;53.750;10.570;2022-11-23T06:07:56;30.38;;;18.52;;
14778;SDS011;7481;53.750;10.570;2022-11-23T06:10:44;26.30;;;15.70;;
14778;SDS011;7481;53.750;10.570;2022-11-23T06:13:31;26.50;;;14.23;;
14778;SDS011;7481;53.750;10.570;2022-11-23T06:16:18;26.23;;;14.77;;
14778;SDS011;7481;53.750;10.570;2022-11-23T06:19:06;25.87;;;14.70;;
14778;SDS011;7481;53.750;10.570;2022-11-23T06:21:53;23.67;;;14.03;;
14778;SDS011;7481;53.750;10.570;2022-11-23T06:24:40;23.63;;;14.27;;
14778;SDS011;7481;53.750;10.570;2022-11-23T06:27:28;27.80;;;14.70;;
14778;SDS011;7481;53.750;10.570;2022-11-23T06:30:16;28.33;;;14.33;;
14778;SDS011;7481;53.750;10.570;2022-11-23T06:33:03;23.27;;;13.90;;
14778;SDS011;7481;53.750;10.570;2022-11-23T06:35:52;26.40;;;14.60;;
14778;SDS011;7481;53.750;10.570;2022-11-23T06:38:39;27.33;;;14.97;;
14778;SDS011;7481;53.750;10.570;2022-11-23T06:41:29;28.20;;;15.90;;
14778;SDS011;7481;53.750;10.570;2022-11-23T06:44:19;30.73;;;14.97;;
14778;SDS011;7481;53.750;10.570;2022-11-23T06:47:07;28.63;;;15.03;;
14778;SDS011;7481;53.750;10.570;2022-11-23T06:50:02;23.87;;;16.00;;
14778;SDS011;7481;53.750;10.570;2022-11-23T06:52:54;27.73;;;15.80;;
14778;SDS011;7481;53.750;10.570;2022-11-23T06:55:42;25.73;;;14.60;;
14778;SDS011;7481;53.750;10.570;2022-11-23T06:58:30;28.27;;;16.00;;
14778;SDS011;7481;53.750;10.570;2022-11-23T07:01:17;29.23;;;16.13;;
14778;SDS011;7481;53.750;10.570;2022-11-23T07:04:05;29.00;;;16.17;;
14778;SDS011;7481;53.750;10.570;2022-11-23T07:06:52;25.27;;;15.13;;
14778;SDS011;7481;53.750;10.570;2022-11-23T07:09:39;26.63;;;15.57;;
14778;SDS011;7481;53.750;10.570;2022-11-23T07:12:27;29.33;;;15.80;;
14778;SDS011;7481;53.750;10.570;2022-11-23T07:15:14;26.60;;;15.87;;
14778;SDS011;7481;53.750;10.570;2022-11-23T07:18:02;29.23;;;16.40;;
14778;SDS011;7481;53.750;10.570;2022-11-23T07:20:49;28.47;;;16.47;;
14778;SDS011;7481;53.750;10.570;2022-11-23T07:23:37;31.93;;;15.43;;
14778;SDS011;7481;53.750;10.570;2022-11-23T07:26:26;27.93;;;15.20;;
14778;SDS011;7481;53.750;10.570;2022-11-23T07:29:14;31.30;;;16.47;;
14778;SDS011;7481;53.750;10.570;2022-11-23T07:32:01;30.87;;;16.53;;
14778;SDS011;7481;53.750;10.570;2022-11-23T07:34:49;29.50;;;16.73;;
14778;SDS011;7481;53.750;10.570;2022-11-23T07:37:36;30.17;;;16.27;;
14778;SDS011;7481;53.750;10.570;2022-11-23T07:40:23;31.33;;;17.73;;
14778;SDS011;7481;53.750;10.570;2022-11-23T07:43:12;30.17;;;16.93;;
14778;SDS011;7481;53.750;10.570;2022-11-23T07:45:59;30.97;;;16.73;;
14778;SDS011;7481;53.750;10.570;2022-11-23T07:48:47;29.37;;;15.93;;
14778;SDS011;7481;53.750;10.570;2022-11-23T07:51:34;27.17;;;15.37;;
14778;SDS011;7481;53.750;10.570;2022-11-23T07:54:22;31.83;;;16.53;;
14778;SDS011;7481;53.750;10.570;2022-11-23T07:57:09;30.17;;;15.97;;
14778;SDS011;7481;53.750;10.570;2022-11-23T07:59:56;29.87;;;16.57;;
14778;SDS011;7481;53.750;10.570;2022-11-23T08:02:44;30.33;;;17.67;;
14778;SDS011;7481;53.750;10.570;2022-11-23T08:05:51;30.07;;;18.20;;
14778;SDS011;7481;53.750;10.570;2022-11-23T08:08:39;34.33;;;16.63;;
14778;SDS011;7481;53.750;10.570;2022-11-23T08:11:26;33.30;;;17.77;;
14778;SDS011;7481;53.750;10.570;2022-11-23T08:14:13;28.03;;;16.83;;
14778;SDS011;7481;53.750;10.570;2022-11-23T08:17:01;33.67;;;17.07;;
14778;SDS011;7481;53.750;10.570;2022-11-23T08:19:48;30.70;;;16.27;;
14778;SDS011;7481;53.750;10.570;2022-11-23T08:22:35;30.60;;;17.23;;
14778;SDS011;7481;53.750;10.570;2022-11-23T08:25:23;32.97;;;16.37;;
14778;SDS011;7481;53.750;10.570;2022-11-23T08:28:11;30.47;;;16.20;;
14778;SDS011;7481;53.750;10.570;2022-11-23T08:30:58;25.73;;;16.03;;
14778;SDS011;7481;53.750;10.570;2022-11-23T08:33:45;30.30;;;15.90;;
14778;SDS011;7481;53.750;10.570;2022-11-23T08:36:32;27.77;;;15.20;;
14778;SDS011;7481;53.750;10.570;2022-11-23T08:39:18;33.63;;;17.03;;
14778;SDS011;7481;53.750;10.570;2022-11-23T08:42:06;27.73;;;15.67;;
14778;SDS011;7481;53.750;10.570;2022-11-23T08:44:52;28.63;;;16.40;;
14778;SDS011;7481;53.750;10.570;2022-11-23T08:47:45;29.60;;;16.93;;
14778;SDS011;7481;53.750;10.570;2022-11-23T08:50:34;32.87;;;15.27;;
14778;SDS011;7481;53.750;10.570;2022-11-23T08:53:24;26.47;;;16.60;;
14778;SDS011;7481;53.750;10.570;2022-11-23T08:56:11;30.23;;;17.67;;
14778;SDS011;7481;53.750;10.570;2022-11-23T08:58:59;31.10;;;16.20;;
14778;SDS011;7481;53.750;10.570;2022-11-23T09:01:48;28.43;;;16.57;;
14778;SDS011;7481;53.750;10.570;2022-11-23T09:04:36;34.37;;;17.73;;
14778;SDS011;7481;53.750;10.570;2022-11-23T09:07:23;29.63;;;17.03;;
14778;SDS011;7481;53.750;10.570;2022-11-23T09:10:10;32.10;;;17.10;;
14778;SDS011;7481;53.750;10.570;2022-11-23T09:13:04;32.80;;;17.23;;
14778;SDS011;7481;53.750;10.570;2022-11-23T09:15:51;28.83;;;17.37;;
14778;SDS011;7481;53.750;10.570;2022-11-23T09:18:45;26.20;;;16.50;;
14778;SDS011;7481;53.750;10.570;2022-11-23T09:21:34;28.07;;;15.27;;
14778;SDS011;7481;53.750;10.570;2022-11-23T09:24:24;20.93;;;13.37;;
14778;SDS011;7481;53.750;10.570;2022-11-23T09:27:13;23.13;;;13.17;;
14778;SDS011;7481;53.750;10.570;2022-11-23T09:30:00;24.70;;;12.57;;
14778;SDS011;7481;53.750;10.570;2022-11-23T09:32:48;19.67;;;11.43;;
14778;SDS011;7481;53.750;10.570;2022-11-23T09:35:35;19.07;;;11.87;;
14778;SDS011;7481;53.750;10.570;2022-11-23T09:38:29;19.07;;;12.47;;
14778;SDS011;7481;53.750;10.570;2022-11-23T09:52:54;13.93;;;8.20;;
14778;SDS011;7481;53.750;10.570;2022-11-23T09:55:45;12.40;;;8.20;;
14778;SDS011;7481;53.750;10.570;2022-11-23T09:58:35;12.27;;;7.77;;
14778;SDS011;7481;53.750;10.570;2022-11-23T10:01:25;14.93;;;9.07;;
14778;SDS011;7481;53.750;10.570;2022-11-23T10:04:14;14.60;;;8.70;;
14778;SDS011;7481;53.750;10.570;2022-11-23T10:07:10;17.70;;;9.70;;
14778;SDS011;7481;53.750;10.570;2022-11-23T10:19:01;13.23;;;8.90;;
14778;SDS011;7481;53.750;10.570;2022-11-23T10:24:56;13.50;;;8.03;;
14778;SDS011;7481;53.750;10.570;2022-11-23T10:27:45;14.47;;;9.40;;
14778;SDS011;7481;53.750;10.570;2022-11-23T10:30:34;17.20;;;9.07;;
14778;SDS011;7481;53.750;10.570;2022-11-23T10:33:25;15.37;;;9.13;;
14778;SDS011;7481;53.750;10.570;2022-11-23T10:36:14;14.20;;;9.30;;
14778;SDS011;7481;53.750;10.570;2022-11-23T10:39:07;16.40;;;9.27;;
14778;SDS011;7481;53.750;10.570;2022-11-23T10:41:57;14.33;;;9.07;;
14778;SDS011;7481;53.750;10.570;2022-11-23T10:44:46;14.00;;;8.60;;
14778;SDS011;7481;53.750;10.570;2022-11-23T10:47:39;17.87;;;9.60;;
14778;SDS011;7481;53.750;10.570;2022-11-23T10:50:28;12.20;;;8.47;;
14778;SDS011;7481;53.750;10.570;2022-11-23T10:56:10;22.93;;;13.47;;
14778;SDS011;7481;53.750;10.570;2022-11-23T10:58:57;26.97;;;15.33;;
14778;SDS011;7481;53.750;10.570;2022-11-23T11:01:50;18.03;;;8.60;;
14778;SDS011;7481;53.750;10.570;2022-11-23T11:04:45;15.77;;;9.20;;
14778;SDS011;7481;53.750;10.570;2022-11-23T11:07:33;17.83;;;8.87;;
14778;SDS011;7481;53.750;10.570;2022-11-23T11:16:20;14.53;;;9.27;;
14778;SDS011;7481;53.750;10.570;2022-11-23T11:19:27;15.57;;;9.77;;
14778;SDS011;7481;53.750;10.570;2022-11-23T11:22:25;15.73;;;9.17;;
14778;SDS011;7481;53.750;10.570;2022-11-23T11:25:25;21.77;;;11.23;;
14778;SDS011;7481;53.750;10.570;2022-11-23T11:28:24;15.63;;;9.60;;
14778;SDS011;7481;53.750;10.570;2022-11-23T11:31:16;14.97;;;9.30;;
14778;SDS011;7481;53.750;10.570;2022-11-23T11:40:05;14.13;;;9.73;;
14778;SDS011;7481;53.750;10.570;2022-11-23T11:43:01;13.80;;;9.60;;
14778;SDS011;7481;53.750;10.570;2022-11-23T11:45:56;17.33;;;9.13;;
14778;SDS011;7481;53.750;10.570;2022-11-23T11:49:24;15.80;;;8.73;;
14778;SDS011;7481;53.750;10.570;2022-11-23T11:52:20;15.63;;;9.20;;
14778;SDS011;7481;53.750;10.570;2022-11-23T11:55:20;16.40;;;9.33;;
14778;SDS011;7481;53.750;10.570;2022-11-23T11:58:10;15.47;;;9.07;;
14778;SDS011;7481;53.750;10.570;2022-11-23T12:01:08;16.60;;;9.20;;
14778;SDS011;7481;53.750;10.570;2022-11-23T12:04:01;14.67;;;9.07;;
14778;SDS011;7481;53.750;10.570;2022-11-23T12:06:52;17.67;;;9.30;;
14778;SDS011;7481;53.750;10.570;2022-11-23T12:09:41;16.00;;;9.23;;
14778;SDS011;7481;53.750;10.570;2022-11-23T12:12:30;16.40;;;9.30;;
14778;SDS011;7481;53.750;10.570;2022-11-23T12:15:19;15.53;;;9.00;;
14778;SDS011;7481;53.750;10.570;2022-11-23T12:18:34;24.90;;;13.13;;
14778;SDS011;7481;53.750;10.570;2022-11-23T12:24:36;13.67;;;8.40;;
14778;SDS011;7481;53.750;10.570;2022-11-23T12:33:52;17.10;;;9.90;;
14778;SDS011;7481;53.750;10.570;2022-11-23T12:43:11;12.57;;;8.47;;
14778;SDS011;7481;53.750;10.570;2022-11-23T12:52:33;14.60;;;8.27;;
14778;SDS011;7481;53.750;10.570;2022-11-23T12:55:48;11.70;;;7.90;;
14778;SDS011;7481;53.750;10.570;2022-11-23T12:59:01;15.70;;;8.27;;
14778;SDS011;7481;53.750;10.570;2022-11-23T13:01:54;14.37;;;8.40;;
14778;SDS011;7481;53.750;10.570;2022-11-23T13:23:05;12.10;;;8.13;;
14778;SDS011;7481;53.750;10.570;2022-11-23T13:26:36;12.07;;;7.93;;
14778;SDS011;7481;53.750;10.570;2022-11-23T13:29:44;17.83;;;9.47;;
14778;SDS011;7481;53.750;10.570;2022-11-23T13:32:43;16.13;;;7.83;;
14778;SDS011;7481;53.750;10.570;2022-11-23T13:38:34;15.10;;;7.70;;
14778;SDS011;7481;53.750;10.570;2022-11-23T13:41:55;15.10;;;7.80;;
14778;SDS011;7481;53.750;10.570;2022-11-23T13:44:43;10.50;;;7.57;;
14778;SDS011;7481;53.750;10.570;2022-11-23T13:47:30;9.87;;;7.17;;
14778;SDS011;7481;53.750;10.570;2022-11-23T13:50:17;10.53;;;7.07;;
14778;SDS011;7481;53.750;10.570;2022-11-23T13:59:31;11.37;;;6.83;;
14778;SDS011;7481;53.750;10.570;2022-11-23T14:02:27;10.57;;;6.50;;
14778;SDS011;7481;53.750;10.570;2022-11-23T14:08:34;13.80;;;7.07;;
14778;SDS011;7481;53.750;10.570;2022-11-23T14:11:24;11.37;;;7.30;;
14778;SDS011;7481;53.750;10.570;2022-11-23T14:14:15;11.50;;;7.50;;
14778;SDS011;7481;53.750;10.570;2022-11-23T14:20:26;11.90;;;6.70;;
14778;SDS011;7481;53.750;10.570;2022-11-23T14:26:42;10.83;;;7.23;;
14778;SDS011;7481;53.750;10.570;2022-11-23T14:33:19;16.63;;;6.17;;
14778;SDS011;7481;53.750;10.570;2022-11-23T14:36:45;11.80;;;6.43;;
14778;SDS011;7481;53.750;10.570;2022-11-23T14:43:00;11.30;;;7.13;;
14778;SDS011;7481;53.750;10.570;2022-11-23T14:45:47;14.03;;;6.60;;
14778;SDS011;7481;53.750;10.570;2022-11-23T14:48:35;13.10;;;7.97;;
14778;SDS011;7481;53.750;10.570;2022-11-23T14:51:22;11.50;;;7.97;;
14778;SDS011;7481;53.750;10.570;2022-11-23T14:54:13;15.97;;;8.33;;
14778;SDS011;7481;53.750;10.570;2022-11-23T14:57:01;12.27;;;7.53;;
14778;SDS011;7481;53.750;10.570;2022-11-23T14:59:57;10.87;;;7.07;;
14778;SDS011;7481;53.750;10.570;2022-11-23T15:02:51;11.90;;;7.37;;
14778;SDS011;7481;53.750;10.570;2022-11-23T15:05:41;16.40;;;9.17;;
14778;SDS011;7481;53.750;10.570;2022-11-23T15:08:45;13.83;;;8.10;;
14778;SDS011;7481;53.750;10.570;2022-11-23T15:11:50;12.93;;;6.43;;
14778;SDS011;7481;53.750;10.570;2022-11-23T15:14:41;12.27;;;7.37;;
14778;SDS011;7481;53.750;10.570;2022-11-23T15:17:29;10.67;;;6.77;;
14778;SDS011;7481;53.750;10.570;2022-11-23T15:20:15;14.60;;;7.40;;
14778;SDS011;7481;53.750;10.570;2022-11-23T15:23:02;9.63;;;6.30;;
14778;SDS011;7481;53.750;10.570;2022-11-23T15:25:51;11.20;;;7.03;;
14778;SDS011;7481;53.750;10.570;2022-11-23T15:28:39;11.93;;;7.30;;
14778;SDS011;7481;53.750;10.570;2022-11-23T15:31:28;17.37;;;6.97;;
14778;SDS011;7481;53.750;10.570;2022-11-23T15:34:18;9.80;;;7.00;;
14778;SDS011;7481;53.750;10.570;2022-11-23T15:37:06;11.37;;;7.07;;
14778;SDS011;7481;53.750;10.570;2022-11-23T15:39:55;12.37;;;7.13;;
14778;SDS011;7481;53.750;10.570;2022-11-23T15:42:43;13.27;;;7.77;;
14778;SDS011;7481;53.750;10.570;2022-11-23T15:45:36;15.40;;;7.93;;
14778;SDS011;7481;53.750;10.570;2022-11-23T15:48:30;14.23;;;7.97;;
14778;SDS011;7481;53.750;10.570;2022-11-23T15:51:38;20.13;;;8.10;;
14778;SDS011;7481;53.750;10.570;2022-11-23T15:54:28;10.33;;;6.93;;
14778;SDS011;7481;53.750;10.570;2022-11-23T15:57:23;13.90;;;7.00;;
14778;SDS011;7481;53.750;10.570;2022-11-23T16:00:21;12.10;;;7.50;;
14778;SDS011;7481;53.750;10.570;2022-11-23T16:03:20;15.03;;;7.27;;
14778;SDS011;7481;53.750;10.570;2022-11-23T16:06:15;12.70;;;8.00;;
14778;SDS011;7481;53.750;10.570;2022-11-23T16:09:30;13.60;;;7.93;;
14778;SDS011;7481;53.750;10.570;2022-11-23T16:12:48;14.70;;;8.30;;
14778;SDS011;7481;53.750;10.570;2022-11-23T16:15:38;14.87;;;8.50;;
14778;SDS011;7481;53.750;10.570;2022-11-23T16:18:27;14.20;;;8.27;;
14778;SDS011;7481;53.750;10.570;2022-11-23T16:21:17;13.03;;;8.27;;
14778;SDS011;7481;53.750;10.570;2022-11-23T16:24:13;14.17;;;8.10;;
14778;SDS011;7481;53.750;10.570;2022-11-23T16:27:12;11.93;;;8.13;;
14778;SDS011;7481;53.750;10.570;2022-11-23T16:30:00;16.83;;;9.33;;
14778;SDS011;7481;53.750;10.570;2022-11-23T16:32:49;13.20;;;8.37;;
14778;SDS011;7481;53.750;10.570;2022-11-23T16:35:36;14.50;;;8.77;;
14778;SDS011;7481;53.750;10.570;2022-11-23T16:38:23;17.63;;;9.67;;
14778;SDS011;7481;53.750;10.570;2022-11-23T16:41:10;16.40;;;9.30;;
14778;SDS011;7481;53.750;10.570;2022-11-23T16:43:57;18.13;;;9.50;;
14778;SDS011;7481;53.750;10.570;2022-11-23T16:46:45;18.83;;;9.63;;
14778;SDS011;7481;53.750;10.570;2022-11-23T16:49:33;16.43;;;8.77;;
14778;SDS011;7481;53.750;10.570;2022-11-23T16:52:21;15.30;;;9.73;;
14778;SDS011;7481;53.750;10.570;2022-11-23T16:55:09;19.77;;;11.57;;
14778;SDS011;7481;53.750;10.570;2022-11-23T16:57:56;20.83;;;11.17;;
14778;SDS011;7481;53.750;10.570;2022-11-23T17:00:44;23.97;;;14.80;;
14778;SDS011;7481;53.750;10.570;2022-11-23T17:03:34;25.33;;;12.97;;
14778;SDS011;7481;53.750;10.570;2022-11-23T17:06:26;18.90;;;11.00;;
14778;SDS011;7481;53.750;10.570;2022-11-23T17:09:13;22.00;;;11.70;;
14778;SDS011;7481;53.750;10.570;2022-11-23T17:12:00;15.93;;;9.97;;
14778;SDS011;7481;53.750;10.570;2022-11-23T17:14:48;17.60;;;10.93;;
14778;SDS011;7481;53.750;10.570;2022-11-23T17:17:36;19.97;;;10.50;;
14778;SDS011;7481;53.750;10.570;2022-11-23T17:20:22;15.27;;;9.00;;
14778;SDS011;7481;53.750;10.570;2022-11-23T17:23:10;20.53;;;10.13;;
14778;SDS011;7481;53.750;10.570;2022-11-23T17:25:57;19.27;;;9.93;;
14778;SDS011;7481;53.750;10.570;2022-11-23T17:28:44;15.27;;;9.13;;
14778;SDS011;7481;53.750;10.570;2022-11-23T17:31:31;19.03;;;9.70;;
14778;SDS011;7481;53.750;10.570;2022-11-23T17:34:18;15.20;;;9.70;;
14778;SDS011;7481;53.750;10.570;2022-11-23T17:37:08;15.10;;;9.67;;
14778;SDS011;7481;53.750;10.570;2022-11-23T17:40:08;15.40;;;9.40;;
14778;SDS011;7481;53.750;10.570;2022-11-23T17:43:00;13.60;;;8.83;;
14778;SDS011;7481;53.750;10.570;2022-11-23T17:45:47;14.87;;;9.17;;
14778;SDS011;7481;53.750;10.570;2022-11-23T17:48:34;14.33;;;8.40;;
14778;SDS011;7481;53.750;10.570;2022-11-23T17:51:21;13.37;;;8.70;;
14778;SDS011;7481;53.750;10.570;2022-11-23T17:54:09;13.57;;;8.30;;
14778;SDS011;7481;53.750;10.570;2022-11-23T17:56:56;14.30;;;8.77;;
14778;SDS011;7481;53.750;10.570;2022-11-23T17:59:43;14.37;;;8.37;;
14778;SDS011;7481;53.750;10.570;2022-11-23T18:02:30;15.87;;;8.77;;
14778;SDS011;7481;53.750;10.570;2022-11-23T18:05:17;15.83;;;8.93;;
14778;SDS011;7481;53.750;10.570;2022-11-23T18:08:07;15.33;;;8.50;;
14778;SDS011;7481;53.750;10.570;2022-11-23T18:10:56;14.10;;;9.13;;
14778;SDS011;7481;53.750;10.570;2022-11-23T18:13:44;15.27;;;9.03;;
14778;SDS011;7481;53.750;10.570;2022-11-23T18:16:36;15.20;;;8.87;;
14778;SDS011;7481;53.750;10.570;2022-11-23T18:19:23;11.73;;;8.07;;
14778;SDS011;7481;53.750;10.570;2022-11-23T18:22:10;13.70;;;8.67;;
14778;SDS011;7481;53.750;10.570;2022-11-23T18:24:58;16.97;;;8.77;;